sensor_id;sensor_type;location;lat;lon;timestamp;temperature;humidity
13211;DHT22;6670;51.53087800;7.23266500;2022-08-11T00:01:46;23.90;56.40
13211;DHT22;6670;51.53087800;7.23266500;2022-08-11T00:04:15;23.60;56.60
13211;DHT22;6670;51.53087800;7.23266500;2022-08-11T00:06:45;23.70;57.30
13211;DHT22;6670;51.53087800;7.23266500;2022-08-11T00:09:16;23.80;57.40
13211;DHT22;6670;51.53087800;7.23266500;2022-08-11T00:11:48;23.80;57.30
13211;DHT22;6670;51.53087800;7.23266500;2022-08-11T00:14:21;23.80;57.40
13211;DHT22;6670;51.53087800;7.23266500;2022-08-11T00:16:54;23.60;57.60
13211;DHT22;6670;51.53087800;7.23266500;2022-08-11T00:19:23;23.40;58.20
13211;DHT22;6670;51.53087800;7.23266500;2022-08-11T00:21:54;23.60;58.50
13211;DHT22;6670;51.53087800;7.23266500;2022-08-11T00:24:22;23.60;58.80
13211;DHT22;6670;51.53087800;7.23266500;2022-08-11T00:26:52;23.50;59.10
13211;DHT22;6670;51.53087800;7.23266500;2022-08-11T00:29:20;23.60;59.30
13211;DHT22;6670;51.53087800;7.23266500;2022-08-11T00:31:50;23.50;59.30
13211;DHT22;6670;51.53087800;7.23266500;2022-08-11T00:34:22;23.30;59.40
13211;DHT22;6670;51.53087800;7.23266500;2022-08-11T00:36:54;23.30;60.20
13211;DHT22;6670;51.53087800;7.23266500;2022-08-11T00:39:23;23.30;60.30
13211;DHT22;6670;51.53087800;7.23266500;2022-08-11T00:42:14;23.40;60.60
13211;DHT22;6670;51.53087800;7.23266500;2022-08-11T00:44:59;23.40;60.80
13211;DHT22;6670;51.53087800;7.23266500;2022-08-11T00:47:42;23.30;60.90
13211;DHT22;6670;51.53087800;7.23266500;2022-08-11T00:50:17;23.30;61.40
13211;DHT22;6670;51.53087800;7.23266500;2022-08-11T00:53:11;23.20;61.90
13211;DHT22;6670;51.53087800;7.23266500;2022-08-11T00:56:15;23.20;62.60
13211;DHT22;6670;51.53087800;7.23266500;2022-08-11T00:59:15;22.90;63.20
13211;DHT22;6670;51.53087800;7.23266500;2022-08-11T01:01:57;22.80;64.70
13211;DHT22;6670;51.53087800;7.23266500;2022-08-11T01:05:02;22.80;64.70
13211;DHT22;6670;51.53087800;7.23266500;2022-08-11T01:11:00;22.90;66.00
13211;DHT22;6670;51.53087800;7.23266500;2022-08-11T01:14:10;23.00;66.30
13211;DHT22;6670;51.53087800;7.23266500;2022-08-11T01:20:13;22.80;67.50
13211;DHT22;6670;51.53087800;7.23266500;2022-08-11T01:26:21;22.80;68.80
13211;DHT22;6670;51.53087800;7.23266500;2022-08-11T01:32:15;23.10;68.50
13211;DHT22;6670;51.53087800;7.23266500;2022-08-11T01:35:26;23.30;68.30
13211;DHT22;6670;51.53087800;7.23266500;2022-08-11T01:41:47;23.10;68.60
13211;DHT22;6670;51.53087800;7.23266500;2022-08-11T01:45:05;22.60;70.50
13211;DHT22;6670;51.53087800;7.23266500;2022-08-11T01:47:38;22.70;71.60
13211;DHT22;6670;51.53087800;7.23266500;2022-08-11T01:50:26;22.50;72.60
13211;DHT22;6670;51.53087800;7.23266500;2022-08-11T01:53:05;22.50;73.60
13211;DHT22;6670;51.53087800;7.23266500;2022-08-11T01:55:41;22.50;74.60
13211;DHT22;6670;51.53087800;7.23266500;2022-08-11T01:58:18;22.20;76.10
13211;DHT22;6670;51.53087800;7.23266500;2022-08-11T02:00:53;22.10;77.20
13211;DHT22;6670;51.53087800;7.23266500;2022-08-11T02:03:33;22.10;78.20
13211;DHT22;6670;51.53087800;7.23266500;2022-08-11T02:06:13;22.40;78.60
13211;DHT22;6670;51.53087800;7.23266500;2022-08-11T02:09:06;22.60;77.40
13211;DHT22;6670;51.53087800;7.23266500;2022-08-11T02:11:37;22.50;77.50
13211;DHT22;6670;51.53087800;7.23266500;2022-08-11T02:14:20;22.30;77.80
13211;DHT22;6670;51.53087800;7.23266500;2022-08-11T02:16:58;22.20;78.60
13211;DHT22;6670;51.53087800;7.23266500;2022-08-11T02:19:37;22.20;78.80
13211;DHT22;6670;51.53087800;7.23266500;2022-08-11T02:22:30;22.00;80.50
13211;DHT22;6670;51.53087800;7.23266500;2022-08-11T02:25:27;22.00;80.80
13211;DHT22;6670;51.53087800;7.23266500;2022-08-11T02:28:03;21.90;82.10
13211;DHT22;6670;51.53087800;7.23266500;2022-08-11T02:30:49;21.70;83.10
13211;DHT22;6670;51.53087800;7.23266500;2022-08-11T02:33:40;21.70;84.20
13211;DHT22;6670;51.53087800;7.23266500;2022-08-11T02:36:11;21.80;83.80
13211;DHT22;6670;51.53087800;7.23266500;2022-08-11T02:38:54;21.80;84.60
13211;DHT22;6670;51.53087800;7.23266500;2022-08-11T02:41:43;21.70;85.10
13211;DHT22;6670;51.53087800;7.23266500;2022-08-11T02:44:38;21.80;85.50
13211;DHT22;6670;51.53087800;7.23266500;2022-08-11T02:47:14;21.70;85.60
13211;DHT22;6670;51.53087800;7.23266500;2022-08-11T02:49:55;21.70;85.80
13211;DHT22;6670;51.53087800;7.23266500;2022-08-11T02:52:31;21.70;85.80
13211;DHT22;6670;51.53087800;7.23266500;2022-08-11T02:55:15;21.40;86.90
13211;DHT22;6670;51.53087800;7.23266500;2022-08-11T02:57:50;21.50;88.40
13211;DHT22;6670;51.53087800;7.23266500;2022-08-11T03:00:28;21.70;87.30
13211;DHT22;6670;51.53087800;7.23266500;2022-08-11T03:03:09;21.90;86.80
13211;DHT22;6670;51.53087800;7.23266500;2022-08-11T03:05:50;21.80;85.90
13211;DHT22;6670;51.53087800;7.23266500;2022-08-11T03:08:28;21.70;87.30
13211;DHT22;6670;51.53087800;7.23266500;2022-08-11T03:11:06;21.70;86.90
13211;DHT22;6670;51.53087800;7.23266500;2022-08-11T03:14:05;21.70;87.20
13211;DHT22;6670;51.53087800;7.23266500;2022-08-11T03:16:54;21.50;88.10
13211;DHT22;6670;51.53087800;7.23266500;2022-08-11T03:19:28;21.50;88.00
13211;DHT22;6670;51.53087800;7.23266500;2022-08-11T03:22:08;21.30;89.40
13211;DHT22;6670;51.53087800;7.23266500;2022-08-11T03:24:52;21.20;89.90
13211;DHT22;6670;51.53087800;7.23266500;2022-08-11T03:27:32;21.00;90.40
13211;DHT22;6670;51.53087800;7.23266500;2022-08-11T03:30:12;20.90;91.20
13211;DHT22;6670;51.53087800;7.23266500;2022-08-11T03:33:18;20.90;91.30
13211;DHT22;6670;51.53087800;7.23266500;2022-08-11T03:36:12;20.70;91.60
13211;DHT22;6670;51.53087800;7.23266500;2022-08-11T03:38:54;21.00;91.60
13211;DHT22;6670;51.53087800;7.23266500;2022-08-11T03:41:31;21.00;91.40
13211;DHT22;6670;51.53087800;7.23266500;2022-08-11T03:44:31;21.00;91.10
13211;DHT22;6670;51.53087800;7.23266500;2022-08-11T03:47:43;20.90;91.60
13211;DHT22;6670;51.53087800;7.23266500;2022-08-11T03:50:25;20.90;91.40
13211;DHT22;6670;51.53087800;7.23266500;2022-08-11T03:53:04;21.10;91.30
13211;DHT22;6670;51.53087800;7.23266500;2022-08-11T03:56:02;21.10;91.50
13211;DHT22;6670;51.53087800;7.23266500;2022-08-11T03:59:07;21.20;91.20
13211;DHT22;6670;51.53087800;7.23266500;2022-08-11T04:02:11;20.90;91.50
13211;DHT22;6670;51.53087800;7.23266500;2022-08-11T04:05:05;21.00;91.30
13211;DHT22;6670;51.53087800;7.23266500;2022-08-11T04:08:09;21.20;91.20
13211;DHT22;6670;51.53087800;7.23266500;2022-08-11T04:11:03;21.00;91.60
13211;DHT22;6670;51.53087800;7.23266500;2022-08-11T04:17:24;21.10;91.40
13211;DHT22;6670;51.53087800;7.23266500;2022-08-11T04:20:30;21.10;91.70
13211;DHT22;6670;51.53087800;7.23266500;2022-08-11T04:23:23;20.90;92.10
13211;DHT22;6670;51.53087800;7.23266500;2022-08-11T04:26:20;20.70;92.40
13211;DHT22;6670;51.53087800;7.23266500;2022-08-11T04:29:04;20.80;92.30
13211;DHT22;6670;51.53087800;7.23266500;2022-08-11T04:31:38;20.90;92.50
13211;DHT22;6670;51.53087800;7.23266500;2022-08-11T04:34:38;20.80;92.40
13211;DHT22;6670;51.53087800;7.23266500;2022-08-11T04:37:34;20.70;92.70
13211;DHT22;6670;51.53087800;7.23266500;2022-08-11T04:46:47;20.70;93.00
13211;DHT22;6670;51.53087800;7.23266500;2022-08-11T04:49:57;20.80;92.70
13211;DHT22;6670;51.53087800;7.23266500;2022-08-11T04:53:12;20.70;92.90
13211;DHT22;6670;51.53087800;7.23266500;2022-08-11T04:56:10;20.80;92.50
13211;DHT22;6670;51.53087800;7.23266500;2022-08-11T04:59:12;20.90;92.50
13211;DHT22;6670;51.53087800;7.23266500;2022-08-11T05:02:27;20.70;93.00
13211;DHT22;6670;51.53087800;7.23266500;2022-08-11T05:05:13;20.70;93.20
13211;DHT22;6670;51.53087800;7.23266500;2022-08-11T05:11:11;20.90;92.80
13211;DHT22;6670;51.53087800;7.23266500;2022-08-11T05:13:46;21.20;92.50
13211;DHT22;6670;51.53087800;7.23266500;2022-08-11T05:16:42;21.50;92.30
13211;DHT22;6670;51.53087800;7.23266500;2022-08-11T05:19:30;21.80;91.20
13211;DHT22;6670;51.53087800;7.23266500;2022-08-11T05:22:17;21.90;90.60
13211;DHT22;6670;51.53087800;7.23266500;2022-08-11T05:25:10;22.00;90.20
13211;DHT22;6670;51.53087800;7.23266500;2022-08-11T05:28:02;22.00;90.00
13211;DHT22;6670;51.53087800;7.23266500;2022-08-11T05:31:07;22.00;89.30
13211;DHT22;6670;51.53087800;7.23266500;2022-08-11T05:33:57;22.10;88.80
13211;DHT22;6670;51.53087800;7.23266500;2022-08-11T05:36:50;22.00;89.00
13211;DHT22;6670;51.53087800;7.23266500;2022-08-11T05:39:23;21.90;89.70
13211;DHT22;6670;51.53087800;7.23266500;2022-08-11T05:42:13;22.00;89.30
13211;DHT22;6670;51.53087800;7.23266500;2022-08-11T05:45:10;22.10;88.70
13211;DHT22;6670;51.53087800;7.23266500;2022-08-11T05:47:56;22.10;89.70
13211;DHT22;6670;51.53087800;7.23266500;2022-08-11T05:50:49;22.10;90.00
13211;DHT22;6670;51.53087800;7.23266500;2022-08-11T05:53:43;22.20;89.30
13211;DHT22;6670;51.53087800;7.23266500;2022-08-11T05:56:31;22.40;88.10
13211;DHT22;6670;51.53087800;7.23266500;2022-08-11T05:58:59;22.30;88.30
13211;DHT22;6670;51.53087800;7.23266500;2022-08-11T06:01:29;22.00;89.20
13211;DHT22;6670;51.53087800;7.23266500;2022-08-11T06:04:05;22.10;89.00
13211;DHT22;6670;51.53087800;7.23266500;2022-08-11T06:06:51;21.80;89.80
13211;DHT22;6670;51.53087800;7.23266500;2022-08-11T06:09:27;21.90;90.10
13211;DHT22;6670;51.53087800;7.23266500;2022-08-11T06:12:00;21.90;90.10
13211;DHT22;6670;51.53087800;7.23266500;2022-08-11T06:14:29;21.90;90.30
13211;DHT22;6670;51.53087800;7.23266500;2022-08-11T06:17:00;22.10;90.30
13211;DHT22;6670;51.53087800;7.23266500;2022-08-11T06:19:41;22.10;90.00
13211;DHT22;6670;51.53087800;7.23266500;2022-08-11T06:22:18;22.00;90.10
13211;DHT22;6670;51.53087800;7.23266500;2022-08-11T06:24:51;22.00;89.70
13211;DHT22;6670;51.53087800;7.23266500;2022-08-11T06:27:21;22.20;89.10
13211;DHT22;6670;51.53087800;7.23266500;2022-08-11T06:29:53;22.30;87.10
13211;DHT22;6670;51.53087800;7.23266500;2022-08-11T06:32:24;22.40;86.20
13211;DHT22;6670;51.53087800;7.23266500;2022-08-11T06:35:00;22.50;86.50
13211;DHT22;6670;51.53087800;7.23266500;2022-08-11T06:38:01;22.30;85.40
13211;DHT22;6670;51.53087800;7.23266500;2022-08-11T06:40:36;22.30;86.00
13211;DHT22;6670;51.53087800;7.23266500;2022-08-11T06:43:17;22.50;86.40
13211;DHT22;6670;51.53087800;7.23266500;2022-08-11T06:45:54;22.60;85.40
13211;DHT22;6670;51.53087800;7.23266500;2022-08-11T06:48:29;23.00;85.30
13211;DHT22;6670;51.53087800;7.23266500;2022-08-11T06:51:01;23.00;84.30
13211;DHT22;6670;51.53087800;7.23266500;2022-08-11T06:53:42;23.10;84.30
13211;DHT22;6670;51.53087800;7.23266500;2022-08-11T06:56:12;23.30;83.10
13211;DHT22;6670;51.53087800;7.23266500;2022-08-11T06:59:00;23.40;82.50
13211;DHT22;6670;51.53087800;7.23266500;2022-08-11T07:01:53;23.30;82.30
13211;DHT22;6670;51.53087800;7.23266500;2022-08-11T07:04:30;23.40;81.30
13211;DHT22;6670;51.53087800;7.23266500;2022-08-11T07:07:26;23.60;81.60
13211;DHT22;6670;51.53087800;7.23266500;2022-08-11T07:10:32;23.80;81.20
13211;DHT22;6670;51.53087800;7.23266500;2022-08-11T07:13:26;23.70;81.10
13211;DHT22;6670;51.53087800;7.23266500;2022-08-11T07:16:18;23.90;80.60
13211;DHT22;6670;51.53087800;7.23266500;2022-08-11T07:18:47;23.90;79.70
13211;DHT22;6670;51.53087800;7.23266500;2022-08-11T07:21:34;23.70;80.40
13211;DHT22;6670;51.53087800;7.23266500;2022-08-11T07:24:24;23.90;79.60
13211;DHT22;6670;51.53087800;7.23266500;2022-08-11T07:27:13;23.90;79.40
13211;DHT22;6670;51.53087800;7.23266500;2022-08-11T07:30:03;24.00;79.30
13211;DHT22;6670;51.53087800;7.23266500;2022-08-11T07:32:38;24.10;78.80
13211;DHT22;6670;51.53087800;7.23266500;2022-08-11T07:35:11;24.10;78.60
13211;DHT22;6670;51.53087800;7.23266500;2022-08-11T07:37:41;24.20;78.50
13211;DHT22;6670;51.53087800;7.23266500;2022-08-11T07:40:10;24.20;77.80
13211;DHT22;6670;51.53087800;7.23266500;2022-08-11T07:42:42;24.30;78.20
13211;DHT22;6670;51.53087800;7.23266500;2022-08-11T07:45:12;24.30;78.50
13211;DHT22;6670;51.53087800;7.23266500;2022-08-11T07:47:59;24.50;78.00
13211;DHT22;6670;51.53087800;7.23266500;2022-08-11T07:50:44;24.60;77.20
13211;DHT22;6670;51.53087800;7.23266500;2022-08-11T07:53:30;24.60;77.00
13211;DHT22;6670;51.53087800;7.23266500;2022-08-11T07:56:03;24.70;76.00
13211;DHT22;6670;51.53087800;7.23266500;2022-08-11T07:58:33;24.70;75.80
13211;DHT22;6670;51.53087800;7.23266500;2022-08-11T08:01:21;24.90;74.50
13211;DHT22;6670;51.53087800;7.23266500;2022-08-11T08:04:11;25.00;73.30
13211;DHT22;6670;51.53087800;7.23266500;2022-08-11T08:06:57;25.00;73.20
13211;DHT22;6670;51.53087800;7.23266500;2022-08-11T08:09:43;25.00;73.70
13211;DHT22;6670;51.53087800;7.23266500;2022-08-11T08:12:30;25.00;72.80
13211;DHT22;6670;51.53087800;7.23266500;2022-08-11T08:15:16;25.10;72.50
13211;DHT22;6670;51.53087800;7.23266500;2022-08-11T08:18:02;25.20;72.40
13211;DHT22;6670;51.53087800;7.23266500;2022-08-11T08:20:36;25.40;70.20
13211;DHT22;6670;51.53087800;7.23266500;2022-08-11T08:23:05;25.40;69.40
13211;DHT22;6670;51.53087800;7.23266500;2022-08-11T08:25:34;25.50;67.50
13211;DHT22;6670;51.53087800;7.23266500;2022-08-11T08:28:05;25.50;68.60
13211;DHT22;6670;51.53087800;7.23266500;2022-08-11T08:30:33;25.60;69.70
13211;DHT22;6670;51.53087800;7.23266500;2022-08-11T08:33:18;25.70;69.50
13211;DHT22;6670;51.53087800;7.23266500;2022-08-11T08:36:14;25.80;68.70
13211;DHT22;6670;51.53087800;7.23266500;2022-08-11T08:38:46;25.90;65.90
13211;DHT22;6670;51.53087800;7.23266500;2022-08-11T08:41:18;25.90;64.30
13211;DHT22;6670;51.53087800;7.23266500;2022-08-11T08:43:49;26.00;66.30
13211;DHT22;6670;51.53087800;7.23266500;2022-08-11T08:46:21;26.00;67.60
13211;DHT22;6670;51.53087800;7.23266500;2022-08-11T08:48:52;26.00;66.30
13211;DHT22;6670;51.53087800;7.23266500;2022-08-11T08:51:23;26.20;64.40
13211;DHT22;6670;51.53087800;7.23266500;2022-08-11T08:54:05;26.20;62.70
13211;DHT22;6670;51.53087800;7.23266500;2022-08-11T08:56:34;26.30;63.20
13211;DHT22;6670;51.53087800;7.23266500;2022-08-11T08:59:05;26.30;62.80
13211;DHT22;6670;51.53087800;7.23266500;2022-08-11T09:01:37;26.40;62.50
13211;DHT22;6670;51.53087800;7.23266500;2022-08-11T09:04:06;26.40;62.90
13211;DHT22;6670;51.53087800;7.23266500;2022-08-11T09:07:07;26.50;60.40
13211;DHT22;6670;51.53087800;7.23266500;2022-08-11T09:09:42;26.60;60.20
13211;DHT22;6670;51.53087800;7.23266500;2022-08-11T09:12:10;26.50;60.20
13211;DHT22;6670;51.53087800;7.23266500;2022-08-11T09:14:41;26.60;59.50
13211;DHT22;6670;51.53087800;7.23266500;2022-08-11T09:17:52;26.70;59.80
13211;DHT22;6670;51.53087800;7.23266500;2022-08-11T09:20:41;26.80;59.70
13211;DHT22;6670;51.53087800;7.23266500;2022-08-11T09:23:10;26.80;60.90
13211;DHT22;6670;51.53087800;7.23266500;2022-08-11T09:25:57;26.90;59.70
13211;DHT22;6670;51.53087800;7.23266500;2022-08-11T09:28:43;26.80;59.10
13211;DHT22;6670;51.53087800;7.23266500;2022-08-11T09:31:12;26.90;58.90
13211;DHT22;6670;51.53087800;7.23266500;2022-08-11T09:33:45;26.90;59.30
13211;DHT22;6670;51.53087800;7.23266500;2022-08-11T09:36:19;26.90;57.00
13211;DHT22;6670;51.53087800;7.23266500;2022-08-11T09:39:16;27.00;57.60
13211;DHT22;6670;51.53087800;7.23266500;2022-08-11T09:42:14;27.10;56.20
13211;DHT22;6670;51.53087800;7.23266500;2022-08-11T09:44:42;27.20;53.60
13211;DHT22;6670;51.53087800;7.23266500;2022-08-11T09:47:26;27.20;51.90
13211;DHT22;6670;51.53087800;7.23266500;2022-08-11T09:49:58;27.30;51.80
13211;DHT22;6670;51.53087800;7.23266500;2022-08-11T09:52:29;27.40;52.00
13211;DHT22;6670;51.53087800;7.23266500;2022-08-11T09:55:15;27.40;52.30
13211;DHT22;6670;51.53087800;7.23266500;2022-08-11T09:57:55;27.50;51.30
13211;DHT22;6670;51.53087800;7.23266500;2022-08-11T10:00:47;27.60;51.70
13211;DHT22;6670;51.53087800;7.23266500;2022-08-11T10:03:26;27.60;49.00
13211;DHT22;6670;51.53087800;7.23266500;2022-08-11T10:05:57;27.70;47.30
13211;DHT22;6670;51.53087800;7.23266500;2022-08-11T10:08:55;27.80;44.40
13211;DHT22;6670;51.53087800;7.23266500;2022-08-11T10:11:33;27.80;46.10
13211;DHT22;6670;51.53087800;7.23266500;2022-08-11T10:14:08;27.70;44.50
13211;DHT22;6670;51.53087800;7.23266500;2022-08-11T10:16:55;27.80;45.00
13211;DHT22;6670;51.53087800;7.23266500;2022-08-11T10:19:47;27.80;44.30
13211;DHT22;6670;51.53087800;7.23266500;2022-08-11T10:22:17;27.90;44.20
13211;DHT22;6670;51.53087800;7.23266500;2022-08-11T10:25:03;28.00;44.10
13211;DHT22;6670;51.53087800;7.23266500;2022-08-11T10:27:50;28.00;44.80
13211;DHT22;6670;51.53087800;7.23266500;2022-08-11T10:30:29;28.10;44.50
13211;DHT22;6670;51.53087800;7.23266500;2022-08-11T10:33:41;28.10;44.10
13211;DHT22;6670;51.53087800;7.23266500;2022-08-11T10:36:30;28.20;44.00
13211;DHT22;6670;51.53087800;7.23266500;2022-08-11T10:39:00;28.40;43.80
13211;DHT22;6670;51.53087800;7.23266500;2022-08-11T10:41:52;28.40;43.70
13211;DHT22;6670;51.53087800;7.23266500;2022-08-11T10:44:41;28.50;42.80
13211;DHT22;6670;51.53087800;7.23266500;2022-08-11T10:47:11;28.50;43.80
13211;DHT22;6670;51.53087800;7.23266500;2022-08-11T10:49:57;28.60;42.30
13211;DHT22;6670;51.53087800;7.23266500;2022-08-11T10:52:47;28.70;42.40
13211;DHT22;6670;51.53087800;7.23266500;2022-08-11T10:55:36;28.70;42.20
13211;DHT22;6670;51.53087800;7.23266500;2022-08-11T10:58:22;28.70;41.40
13211;DHT22;6670;51.53087800;7.23266500;2022-08-11T11:01:09;28.80;41.40
13211;DHT22;6670;51.53087800;7.23266500;2022-08-11T11:03:37;28.90;41.80
13211;DHT22;6670;51.53087800;7.23266500;2022-08-11T11:06:16;29.00;41.00
13211;DHT22;6670;51.53087800;7.23266500;2022-08-11T11:08:55;28.90;41.20
13211;DHT22;6670;51.53087800;7.23266500;2022-08-11T11:11:25;29.20;41.30
13211;DHT22;6670;51.53087800;7.23266500;2022-08-11T11:14:16;29.30;41.20
13211;DHT22;6670;51.53087800;7.23266500;2022-08-11T11:17:04;29.30;40.10
13211;DHT22;6670;51.53087800;7.23266500;2022-08-11T11:20:24;29.20;39.40
13211;DHT22;6670;51.53087800;7.23266500;2022-08-11T11:22:55;29.40;39.30
13211;DHT22;6670;51.53087800;7.23266500;2022-08-11T11:25:34;29.60;39.80
13211;DHT22;6670;51.53087800;7.23266500;2022-08-11T11:28:20;29.60;40.80
13211;DHT22;6670;51.53087800;7.23266500;2022-08-11T11:31:03;29.80;41.10
13211;DHT22;6670;51.53087800;7.23266500;2022-08-11T11:33:49;29.90;40.20
13211;DHT22;6670;51.53087800;7.23266500;2022-08-11T11:36:30;30.00;39.80
13211;DHT22;6670;51.53087800;7.23266500;2022-08-11T11:39:01;30.00;37.70
13211;DHT22;6670;51.53087800;7.23266500;2022-08-11T11:41:28;30.00;38.40
13211;DHT22;6670;51.53087800;7.23266500;2022-08-11T11:43:58;29.90;39.10
13211;DHT22;6670;51.53087800;7.23266500;2022-08-11T11:46:29;30.00;38.60
13211;DHT22;6670;51.53087800;7.23266500;2022-08-11T11:49:00;30.10;37.90
13211;DHT22;6670;51.53087800;7.23266500;2022-08-11T11:51:32;30.00;37.90
13211;DHT22;6670;51.53087800;7.23266500;2022-08-11T11:54:07;30.10;37.70
13211;DHT22;6670;51.53087800;7.23266500;2022-08-11T11:56:36;30.30;36.90
13211;DHT22;6670;51.53087800;7.23266500;2022-08-11T11:59:04;30.40;37.00
13211;DHT22;6670;51.53087800;7.23266500;2022-08-11T12:01:50;30.50;37.30
13211;DHT22;6670;51.53087800;7.23266500;2022-08-11T12:04:19;30.50;36.80
13211;DHT22;6670;51.53087800;7.23266500;2022-08-11T12:06:49;30.50;36.60
13211;DHT22;6670;51.53087800;7.23266500;2022-08-11T12:09:38;30.50;37.30
13211;DHT22;6670;51.53087800;7.23266500;2022-08-11T12:12:08;30.60;37.30
13211;DHT22;6670;51.53087800;7.23266500;2022-08-11T12:15:06;30.70;37.10
13211;DHT22;6670;51.53087800;7.23266500;2022-08-11T12:17:35;30.90;36.70
13211;DHT22;6670;51.53087800;7.23266500;2022-08-11T12:20:05;31.00;36.70
13211;DHT22;6670;51.53087800;7.23266500;2022-08-11T12:22:34;31.20;35.70
13211;DHT22;6670;51.53087800;7.23266500;2022-08-11T12:25:29;31.30;36.00
13211;DHT22;6670;51.53087800;7.23266500;2022-08-11T12:28:14;31.30;34.60
13211;DHT22;6670;51.53087800;7.23266500;2022-08-11T12:30:50;30.90;35.30
13211;DHT22;6670;51.53087800;7.23266500;2022-08-11T12:33:20;31.20;35.40
13211;DHT22;6670;51.53087800;7.23266500;2022-08-11T12:35:57;31.40;35.20
13211;DHT22;6670;51.53087800;7.23266500;2022-08-11T12:38:26;31.60;34.80
13211;DHT22;6670;51.53087800;7.23266500;2022-08-11T12:40:54;31.80;34.30
13211;DHT22;6670;51.53087800;7.23266500;2022-08-11T12:43:44;31.70;33.80
13211;DHT22;6670;51.53087800;7.23266500;2022-08-11T12:46:33;31.70;34.60
13211;DHT22;6670;51.53087800;7.23266500;2022-08-11T12:49:14;31.90;33.90
13211;DHT22;6670;51.53087800;7.23266500;2022-08-11T12:52:05;31.90;34.00
13211;DHT22;6670;51.53087800;7.23266500;2022-08-11T12:54:40;31.90;33.60
13211;DHT22;6670;51.53087800;7.23266500;2022-08-11T12:57:14;31.80;34.70
13211;DHT22;6670;51.53087800;7.23266500;2022-08-11T13:00:00;32.10;33.80
13211;DHT22;6670;51.53087800;7.23266500;2022-08-11T13:02:53;32.30;33.50
13211;DHT22;6670;51.53087800;7.23266500;2022-08-11T13:05:40;32.40;32.80
13211;DHT22;6670;51.53087800;7.23266500;2022-08-11T13:08:10;32.20;33.10
13211;DHT22;6670;51.53087800;7.23266500;2022-08-11T13:10:43;32.40;33.10
13211;DHT22;6670;51.53087800;7.23266500;2022-08-11T13:13:29;32.20;33.20
13211;DHT22;6670;51.53087800;7.23266500;2022-08-11T13:15:57;32.40;33.00
13211;DHT22;6670;51.53087800;7.23266500;2022-08-11T13:18:26;32.50;32.10
13211;DHT22;6670;51.53087800;7.23266500;2022-08-11T13:20:56;32.70;32.20
13211;DHT22;6670;51.53087800;7.23266500;2022-08-11T13:23:28;32.80;31.60
13211;DHT22;6670;51.53087800;7.23266500;2022-08-11T13:25:57;32.70;32.10
13211;DHT22;6670;51.53087800;7.23266500;2022-08-11T13:28:24;32.80;31.70
13211;DHT22;6670;51.53087800;7.23266500;2022-08-11T13:30:53;33.10;31.20
13211;DHT22;6670;51.53087800;7.23266500;2022-08-11T13:33:47;32.80;31.00
13211;DHT22;6670;51.53087800;7.23266500;2022-08-11T13:36:24;32.90;31.30
13211;DHT22;6670;51.53087800;7.23266500;2022-08-11T13:38:55;33.20;30.50
13211;DHT22;6670;51.53087800;7.23266500;2022-08-11T13:41:25;33.50;29.80
13211;DHT22;6670;51.53087800;7.23266500;2022-08-11T13:44:09;33.70;29.80
13211;DHT22;6670;51.53087800;7.23266500;2022-08-11T13:46:40;33.50;30.00
13211;DHT22;6670;51.53087800;7.23266500;2022-08-11T13:49:08;33.40;29.80
13211;DHT22;6670;51.53087800;7.23266500;2022-08-11T13:51:37;33.40;29.50
13211;DHT22;6670;51.53087800;7.23266500;2022-08-11T13:54:08;33.90;30.00
13211;DHT22;6670;51.53087800;7.23266500;2022-08-11T13:56:41;34.10;29.00
13211;DHT22;6670;51.53087800;7.23266500;2022-08-11T13:59:09;34.10;28.80
13211;DHT22;6670;51.53087800;7.23266500;2022-08-11T14:01:38;34.20;29.00
13211;DHT22;6670;51.53087800;7.23266500;2022-08-11T14:04:17;34.40;28.70
13211;DHT22;6670;51.53087800;7.23266500;2022-08-11T14:06:50;34.50;28.60
13211;DHT22;6670;51.53087800;7.23266500;2022-08-11T14:09:25;34.70;27.70
13211;DHT22;6670;51.53087800;7.23266500;2022-08-11T14:11:57;34.90;27.50
13211;DHT22;6670;51.53087800;7.23266500;2022-08-11T14:14:47;34.40;27.40
13211;DHT22;6670;51.53087800;7.23266500;2022-08-11T14:17:33;34.50;27.60
13211;DHT22;6670;51.53087800;7.23266500;2022-08-11T14:20:05;33.70;28.70
13211;DHT22;6670;51.53087800;7.23266500;2022-08-11T14:22:42;34.00;28.00
13211;DHT22;6670;51.53087800;7.23266500;2022-08-11T14:25:13;33.30;27.20
13211;DHT22;6670;51.53087800;7.23266500;2022-08-11T14:27:43;33.20;28.00
13211;DHT22;6670;51.53087800;7.23266500;2022-08-11T14:30:15;34.00;28.10
13211;DHT22;6670;51.53087800;7.23266500;2022-08-11T14:32:56;34.40;28.00
13211;DHT22;6670;51.53087800;7.23266500;2022-08-11T14:35:24;34.00;27.60
13211;DHT22;6670;51.53087800;7.23266500;2022-08-11T14:37:54;34.20;27.10
13211;DHT22;6670;51.53087800;7.23266500;2022-08-11T14:40:25;34.20;27.00
13211;DHT22;6670;51.53087800;7.23266500;2022-08-11T14:43:09;34.80;27.10
13211;DHT22;6670;51.53087800;7.23266500;2022-08-11T14:45:55;34.40;27.30
13211;DHT22;6670;51.53087800;7.23266500;2022-08-11T14:48:41;35.10;26.80
13211;DHT22;6670;51.53087800;7.23266500;2022-08-11T14:51:40;35.30;26.30
13211;DHT22;6670;51.53087800;7.23266500;2022-08-11T14:54:08;35.20;26.30
13211;DHT22;6670;51.53087800;7.23266500;2022-08-11T14:56:55;34.90;25.40
13211;DHT22;6670;51.53087800;7.23266500;2022-08-11T14:59:23;34.70;26.10
13211;DHT22;6670;51.53087800;7.23266500;2022-08-11T15:01:51;35.00;25.80
13211;DHT22;6670;51.53087800;7.23266500;2022-08-11T15:04:46;35.30;25.60
13211;DHT22;6670;51.53087800;7.23266500;2022-08-11T15:07:14;35.40;25.10
13211;DHT22;6670;51.53087800;7.23266500;2022-08-11T15:09:43;35.10;25.30
13211;DHT22;6670;51.53087800;7.23266500;2022-08-11T15:12:13;35.20;25.40
13211;DHT22;6670;51.53087800;7.23266500;2022-08-11T15:14:43;35.30;25.80
13211;DHT22;6670;51.53087800;7.23266500;2022-08-11T15:17:31;35.50;25.50
13211;DHT22;6670;51.53087800;7.23266500;2022-08-11T15:19:59;35.10;25.80
13211;DHT22;6670;51.53087800;7.23266500;2022-08-11T15:22:46;34.90;25.30